Time;durP1;ratioP1;P1;durP2;ratioP2;P2;SDS_P1;SDS_P2;PMS_P1;PMS_P2;Temp;Humidity;BMP_temperature;BMP_pressure;BME280_temperature;BME280_humidity;BME280_pressure;Samples;Min_cycle;Max_cycle;Signal;HPM_P1;HPM_P2
2023/06/07 00:00:36;;;;;;;;;;;21.70;93.20;;;;;;5094684;28;19969;-46
2023/06/07 00:03:06;;;;;;;;;;;21.70;93.20;;;;;;5095772;28;19915;-43
2023/06/07 00:05:31;;;;;;;;;;;21.70;93.20;;;;;;5077545;28;19908;-44
2023/06/07 00:07:57;;;;;;;;;;;21.70;93.20;;;;;;5094560;28;19912;-44
2023/06/07 00:10:23;;;;;;;;;;;21.70;93.20;;;;;;5095281;28;19912;-42
2023/06/07 00:12:49;;;;;;;;;;;21.70;93.20;;;;;;5094305;28;19923;-43
2023/06/07 00:15:14;;;;;;;;;;;21.70;93.20;;;;;;5095120;28;19908;-45
2023/06/07 00:17:40;;;;;;;;;;;21.70;93.20;;;;;;5095350;28;19912;-44
2023/06/07 00:20:08;;;;;;;;;;;21.70;93.20;;;;;;5095399;28;19965;-43
2023/06/07 00:22:34;;;;;;;;;;;21.70;93.20;;;;;;5101782;28;20259;-43
2023/06/07 00:25:00;;;;;;;;;;;21.70;93.20;;;;;;5115646;28;20020;-43
2023/06/07 00:27:26;;;;;;;;;;;21.70;93.20;;;;;;5115212;28;19953;-44
2023/06/07 00:29:51;;;;;;;;;;;21.70;93.20;;;;;;5115543;28;19915;-45
2023/06/07 00:32:17;;;;;;;;;;;21.70;93.20;;;;;;5105665;28;20287;-43
2023/06/07 00:34:42;;;;;;;;;;;21.70;93.20;;;;;;5094864;28;19908;-45
2023/06/07 00:37:08;;;;;;;;;;;21.60;93.20;;;;;;5094824;28;20337;-43
2023/06/07 00:39:33;;;;;;;;;;;21.70;93.20;;;;;;5095056;28;19909;-43
2023/06/07 00:41:59;;;;;;;;;;;21.70;93.20;;;;;;5093890;28;19923;-43
2023/06/07 00:44:24;;;;;;;;;;;21.70;93.20;;;;;;5094837;28;19916;-48
2023/06/07 00:46:51;;;;;;;;;;;21.70;93.20;;;;;;5076890;28;19924;-47
2023/06/07 00:49:17;;;;;;;;;;;21.60;93.20;;;;;;5094417;28;19965;-45
2023/06/07 00:51:43;;;;;;;;;;;21.70;93.20;;;;;;5094563;28;19916;-43
2023/06/07 00:54:08;;;;;;;;;;;21.60;93.20;;;;;;5093888;28;19966;-44
2023/06/07 00:56:35;;;;;;;;;;;21.70;93.20;;;;;;5094726;28;19908;-44
2023/06/07 00:59:01;;;;;;;;;;;21.60;93.20;;;;;;5094731;28;19999;-45
2023/06/07 01:01:27;;;;;;;;;;;21.60;93.20;;;;;;5094412;28;19908;-47
2023/06/07 01:03:53;;;;;;;;;;;21.60;93.20;;;;;;5093770;28;20264;-47
2023/06/07 01:06:21;;;;;;;;;;;21.60;93.20;;;;;;5094310;28;19957;-46
2023/06/07 01:08:48;;;;;;;;;;;21.60;93.20;;;;;;5094215;28;19955;-46
2023/06/07 01:11:13;;;;;;;;;;;21.60;93.20;;;;;;5094566;28;19912;-45
2023/06/07 01:13:39;;;;;;;;;;;21.60;93.20;;;;;;5093149;28;19912;-45
2023/06/07 01:16:06;;;;;;;;;;;21.60;93.20;;;;;;5094242;28;19915;-47
2023/06/07 01:18:32;;;;;;;;;;;21.60;93.20;;;;;;5093230;28;19915;-48
2023/06/07 01:20:59;;;;;;;;;;;21.60;93.20;;;;;;5093027;28;20020;-45
2023/06/07 01:23:31;;;;;;;;;;;21.60;93.20;;;;;;5109191;28;19908;-45
2023/06/07 01:25:58;;;;;;;;;;;21.60;93.20;;;;;;5114493;28;20007;-44
2023/06/07 01:28:24;;;;;;;;;;;21.60;93.20;;;;;;5114636;28;19912;-47
2023/06/07 01:30:51;;;;;;;;;;;21.60;93.20;;;;;;5114463;28;20014;-46
2023/06/07 01:33:17;;;;;;;;;;;21.60;93.20;;;;;;5092354;28;20376;-44
2023/06/07 01:35:44;;;;;;;;;;;21.60;93.20;;;;;;5076183;28;19999;-46
2023/06/07 01:38:10;;;;;;;;;;;21.60;93.20;;;;;;5094170;28;19962;-45
2023/06/07 01:40:36;;;;;;;;;;;21.60;93.20;;;;;;5093965;28;19908;-44
2023/06/07 01:43:02;;;;;;;;;;;21.60;93.20;;;;;;5093058;28;19966;-46
2023/06/07 01:45:27;;;;;;;;;;;21.60;93.20;;;;;;5094125;28;20309;-45
2023/06/07 01:47:53;;;;;;;;;;;21.60;93.20;;;;;;5094302;28;19965;-44
2023/06/07 01:50:22;;;;;;;;;;;21.60;93.20;;;;;;5094149;28;20264;-44
2023/06/07 01:52:47;;;;;;;;;;;21.60;93.20;;;;;;5093290;28;19912;-43
2023/06/07 01:55:13;;;;;;;;;;;21.60;93.20;;;;;;5093810;28;19968;-43
2023/06/07 01:57:38;;;;;;;;;;;21.60;93.20;;;;;;5094085;28;20064;-44
2023/06/07 02:00:13;;;;;;;;;;;21.60;93.20;;;;;;5093820;28;20279;-45
2023/06/07 02:02:57;;;;;;;;;;;21.60;93.20;;;;;;5092845;28;20270;-45
2023/06/07 02:05:26;;;;;;;;;;;21.60;93.10;;;;;;5093850;28;19908;-43
2023/06/07 02:07:53;;;;;;;;;;;21.60;93.10;;;;;;5093790;28;19908;-44
2023/06/07 02:10:20;;;;;;;;;;;21.60;93.10;;;;;;5093704;28;19916;-45
2023/06/07 02:12:46;;;;;;;;;;;21.50;93.10;;;;;;5093367;28;19917;-43
2023/06/07 02:15:11;;;;;;;;;;;21.60;93.10;;;;;;5093962;28;19908;-44
2023/06/07 02:18:01;;;;;;;;;;;21.60;93.10;;;;;;5093869;28;20375;-45
2023/06/07 02:20:27;;;;;;;;;;;21.60;93.30;;;;;;5092987;28;19909;-47
2023/06/07 02:22:52;;;;;;;;;;;21.50;93.10;;;;;;5103084;28;20381;-44
2023/06/07 02:25:18;;;;;;;;;;;21.50;93.10;;;;;;5114499;28;19911;-43
2023/06/07 02:27:43;;;;;;;;;;;21.50;93.10;;;;;;5114061;28;19908;-43
2023/06/07 02:30:09;;;;;;;;;;;21.50;93.10;;;;;;5097527;28;19919;-43
2023/06/07 02:32:35;;;;;;;;;;;21.50;93.10;;;;;;5100860;28;20330;-43
2023/06/07 02:35:00;;;;;;;;;;;21.50;93.10;;;;;;5097470;28;19947;-44
2023/06/07 02:37:27;;;;;;;;;;;21.50;93.10;;;;;;5097433;28;19915;-46
2023/06/07 02:39:53;;;;;;;;;;;21.50;93.10;;;;;;5097323;28;20003;-43
2023/06/07 02:42:18;;;;;;;;;;;21.50;93.10;;;;;;5096436;28;19962;-45
2023/06/07 02:44:44;;;;;;;;;;;21.50;93.10;;;;;;5097261;28;20347;-44
2023/06/07 02:47:10;;;;;;;;;;;21.50;93.10;;;;;;5097235;28;19963;-46
2023/06/07 02:49:35;;;;;;;;;;;21.50;93.10;;;;;;5097184;28;19912;-46
2023/06/07 02:52:01;;;;;;;;;;;21.50;93.10;;;;;;5095913;28;20014;-45
2023/06/07 02:54:26;;;;;;;;;;;21.50;93.10;;;;;;5097164;28;19908;-46
2023/06/07 02:56:51;;;;;;;;;;;21.50;93.10;;;;;;5097059;28;19947;-43
2023/06/07 02:59:18;;;;;;;;;;;21.50;93.10;;;;;;5097045;28;20366;-44
2023/06/07 03:01:43;;;;;;;;;;;21.50;93.10;;;;;;5096704;28;20283;-44
2023/06/07 03:04:08;;;;;;;;;;;21.50;93.10;;;;;;5095689;28;19916;-44
2023/06/07 03:06:34;;;;;;;;;;;21.50;93.10;;;;;;5096835;28;20358;-47
2023/06/07 03:09:00;;;;;;;;;;;21.50;93.10;;;;;;5096818;28;19912;-44
2023/06/07 03:11:25;;;;;;;;;;;21.50;93.10;;;;;;5096848;28;20288;-45
2023/06/07 03:13:51;;;;;;;;;;;21.50;93.10;;;;;;5095895;28;20355;-44
2023/06/07 03:16:16;;;;;;;;;;;21.50;93.10;;;;;;5096607;28;20014;-45
2023/06/07 03:18:42;;;;;;;;;;;21.50;93.10;;;;;;5096950;28;19908;-43
2023/06/07 03:21:08;;;;;;;;;;;21.50;93.10;;;;;;5076929;28;20041;-45
2023/06/07 03:23:33;;;;;;;;;;;21.50;93.10;;;;;;5112181;28;19955;-44
2023/06/07 03:25:59;;;;;;;;;;;21.50;93.10;;;;;;5116996;28;19994;-45
2023/06/07 03:28:25;;;;;;;;;;;21.50;93.10;;;;;;5116802;28;19912;-45
2023/06/07 03:30:50;;;;;;;;;;;21.50;93.10;;;;;;5113005;28;20393;-48
2023/06/07 03:33:16;;;;;;;;;;;21.50;93.10;;;;;;5096622;28;19962;-45
2023/06/07 03:35:44;;;;;;;;;;;21.50;93.10;;;;;;5096331;28;19908;-48
2023/06/07 03:38:09;;;;;;;;;;;21.50;93.10;;;;;;5096244;28;20243;-44
2023/06/07 03:40:35;;;;;;;;;;;21.50;93.10;;;;;;5095856;28;20290;-45
2023/06/07 03:43:01;;;;;;;;;;;21.50;93.10;;;;;;5094153;28;20195;-46
2023/06/07 03:45:27;;;;;;;;;;;21.50;93.10;;;;;;5096132;28;19908;-45
2023/06/07 03:47:53;;;;;;;;;;;21.50;93.10;;;;;;5096116;28;20018;-45
2023/06/07 03:50:20;;;;;;;;;;;21.50;93.10;;;;;;5095936;28;19916;-43
2023/06/07 03:52:45;;;;;;;;;;;21.50;93.10;;;;;;5094927;28;19916;-44
2023/06/07 03:55:11;;;;;;;;;;;21.50;93.30;;;;;;5095571;28;19954;-47
2023/06/07 03:57:37;;;;;;;;;;;21.50;93.10;;;;;;5095538;28;19915;-43
2023/06/07 04:00:11;;;;;;;;;;;21.60;93.10;;;;;;5088442;28;21536;-50
2023/06/07 04:02:36;;;;;;;;;;;21.50;93.00;;;;;;5078328;28;20416;-44
2023/06/07 04:05:03;;;;;;;;;;;21.50;93.00;;;;;;5096271;28;19998;-49
2023/06/07 04:07:28;;;;;;;;;;;21.50;93.00;;;;;;5095407;28;19912;-43
2023/06/07 04:09:54;;;;;;;;;;;21.50;92.90;;;;;;5095496;28;19912;-46
2023/06/07 04:12:20;;;;;;;;;;;21.60;93.00;;;;;;5095498;28;19919;-46
2023/06/07 04:14:45;;;;;;;;;;;21.60;93.00;;;;;;5094619;28;20008;-44
2023/06/07 04:17:11;;;;;;;;;;;21.60;93.00;;;;;;5095395;28;20278;-45
2023/06/07 04:19:36;;;;;;;;;;;21.60;93.00;;;;;;5091368;28;19927;-47
2023/06/07 04:22:04;;;;;;;;;;;21.60;93.00;;;;;;5083570;28;19919;-45
2023/06/07 04:24:30;;;;;;;;;;;21.60;93.00;;;;;;5113882;28;19908;-47
2023/06/07 04:26:56;;;;;;;;;;;21.60;92.90;;;;;;5107176;28;19912;-44
2023/06/07 04:29:25;;;;;;;;;;;21.60;92.90;;;;;;5090612;28;20014;-43
2023/06/07 04:31:52;;;;;;;;;;;21.60;92.90;;;;;;5096119;28;20389;-46
2023/06/07 04:34:21;;;;;;;;;;;21.60;92.90;;;;;;5103162;28;19912;-46
2023/06/07 04:36:49;;;;;;;;;;;21.60;92.90;;;;;;5098730;28;19999;-48
2023/06/07 04:39:14;;;;;;;;;;;21.60;92.90;;;;;;5095177;28;19950;-43
2023/06/07 04:41:40;;;;;;;;;;;21.60;92.90;;;;;;5075936;28;19950;-44
2023/06/07 04:44:07;;;;;;;;;;;21.60;92.90;;;;;;5094646;28;19913;-46
2023/06/07 04:46:32;;;;;;;;;;;21.60;93.00;;;;;;5094827;28;19927;-47
2023/06/07 04:48:58;;;;;;;;;;;21.70;93.00;;;;;;5094570;28;20314;-49
2023/06/07 04:51:25;;;;;;;;;;;21.70;93.10;;;;;;5092224;28;19939;-43
2023/06/07 04:53:58;;;;;;;;;;;21.70;93.10;;;;;;5076376;28;19915;-46
2023/06/07 04:56:25;;;;;;;;;;;21.70;93.10;;;;;;5097370;28;19912;-43
2023/06/07 04:58:52;;;;;;;;;;;21.70;93.00;;;;;;5094660;28;20267;-50
2023/06/07 05:01:18;;;;;;;;;;;21.60;91.30;;;;;;5074262;28;20523;-45
2023/06/07 05:03:43;;;;;;;;;;;21.70;91.50;;;;;;5094496;28;20003;-46
2023/06/07 05:06:09;;;;;;;;;;;21.70;91.90;;;;;;5084750;28;20370;-44
2023/06/07 05:08:35;;;;;;;;;;;21.70;92.20;;;;;;5095546;28;20009;-45
2023/06/07 05:11:01;;;;;;;;;;;21.70;92.40;;;;;;5074478;28;19959;-45
2023/06/07 05:13:26;;;;;;;;;;;21.70;92.50;;;;;;5091755;28;19912;-46
2023/06/07 05:15:52;;;;;;;;;;;21.70;92.60;;;;;;5091107;28;19995;-44
2023/06/07 05:18:19;;;;;;;;;;;21.70;92.70;;;;;;5084943;28;20028;-46
2023/06/07 05:20:48;;;;;;;;;;;21.70;92.70;;;;;;5115125;28;19950;-44
2023/06/07 05:23:16;;;;;;;;;;;21.70;92.70;;;;;;5104792;28;19986;-45
2023/06/07 05:25:43;;;;;;;;;;;21.70;92.70;;;;;;5074063;28;19912;-47
2023/06/07 05:28:08;;;;;;;;;;;21.70;92.80;;;;;;5094212;28;19965;-46
2023/06/07 05:30:33;;;;;;;;;;;21.70;92.90;;;;;;5076219;28;19912;-46
2023/06/07 05:32:59;;;;;;;;;;;21.70;93.00;;;;;;5094338;28;20343;-46
2023/06/07 05:35:24;;;;;;;;;;;21.70;93.10;;;;;;5091711;28;19972;-45
2023/06/07 05:37:50;;;;;;;;;;;21.70;93.10;;;;;;5091280;28;19919;-44
2023/06/07 05:40:18;;;;;;;;;;;21.70;93.10;;;;;;5092818;28;20444;-46
2023/06/07 05:42:44;;;;;;;;;;;21.70;93.10;;;;;;5094077;28;20274;-45
2023/06/07 05:45:10;;;;;;;;;;;21.70;93.10;;;;;;5093855;28;19915;-48
2023/06/07 05:47:35;;;;;;;;;;;21.70;93.10;;;;;;5092226;28;19920;-43
2023/06/07 05:50:01;;;;;;;;;;;21.70;93.10;;;;;;5093986;28;19963;-46
2023/06/07 05:52:27;;;;;;;;;;;21.70;93.10;;;;;;5093977;28;19912;-44
2023/06/07 05:54:54;;;;;;;;;;;21.70;93.10;;;;;;5093627;28;19966;-45
2023/06/07 05:57:20;;;;;;;;;;;21.70;93.10;;;;;;5093072;28;20367;-46
2023/06/07 05:59:45;;;;;;;;;;;21.70;93.10;;;;;;5093935;28;19912;-45
2023/06/07 06:02:11;;;;;;;;;;;21.70;93.10;;;;;;5093846;28;19962;-46
2023/06/07 06:04:36;;;;;;;;;;;21.70;93.10;;;;;;5094239;28;20444;-45
2023/06/07 06:07:02;;;;;;;;;;;21.70;93.30;;;;;;5097833;28;19962;-44
2023/06/07 06:09:28;;;;;;;;;;;21.70;93.10;;;;;;5075905;28;19918;-47
2023/06/07 06:11:55;;;;;;;;;;;21.70;93.10;;;;;;5087584;28;19923;-46
2023/06/07 06:14:25;;;;;;;;;;;21.70;93.00;;;;;;5097818;28;19908;-44
2023/06/07 06:16:50;;;;;;;;;;;21.70;93.00;;;;;;5097542;28;19953;-47
2023/06/07 06:19:16;;;;;;;;;;;21.70;93.00;;;;;;5096588;28;20003;-46
2023/06/07 06:21:42;;;;;;;;;;;21.70;93.00;;;;;;5096566;28;19912;-44
2023/06/07 06:24:07;;;;;;;;;;;21.70;93.00;;;;;;5117837;28;20012;-43
2023/06/07 06:26:33;;;;;;;;;;;21.70;93.00;;;;;;5117929;28;19915;-46
2023/06/07 06:28:58;;;;;;;;;;;21.70;93.00;;;;;;5110125;28;19916;-43
2023/06/07 06:31:27;;;;;;;;;;;21.70;93.00;;;;;;5097808;28;19916;-42
2023/06/07 06:33:52;;;;;;;;;;;21.70;93.00;;;;;;5097084;28;20351;-46
2023/06/07 06:36:20;;;;;;;;;;;21.70;93.00;;;;;;5097238;28;19973;-44
2023/06/07 06:38:46;;;;;;;;;;;21.70;92.90;;;;;;5096607;28;19934;-43
2023/06/07 06:41:11;;;;;;;;;;;21.70;92.90;;;;;;5079006;28;19912;-48
2023/06/07 06:43:37;;;;;;;;;;;21.70;92.90;;;;;;5094953;28;19912;-45
2023/06/07 06:46:02;;;;;;;;;;;21.70;92.90;;;;;;5095749;28;19912;-45
2023/06/07 06:48:27;;;;;;;;;;;21.70;92.90;;;;;;5095699;28;20489;-43
2023/06/07 06:50:53;;;;;;;;;;;21.70;92.90;;;;;;5078815;28;19912;-47
2023/06/07 06:53:18;;;;;;;;;;;21.70;92.90;;;;;;5078739;28;19916;-46
2023/06/07 06:55:44;;;;;;;;;;;21.70;92.90;;;;;;5096910;28;19909;-44
2023/06/07 06:58:09;;;;;;;;;;;21.70;92.90;;;;;;5097120;28;19933;-43
2023/06/07 07:00:37;;;;;;;;;;;21.70;92.90;;;;;;5087963;28;19912;-45
2023/06/07 07:03:03;;;;;;;;;;;21.70;93.00;;;;;;5093439;28;20033;-45
2023/06/07 07:05:28;;;;;;;;;;;21.70;92.90;;;;;;5096430;28;19917;-45
2023/06/07 07:07:54;;;;;;;;;;;21.70;92.90;;;;;;5096749;28;19916;-44
2023/06/07 07:10:19;;;;;;;;;;;21.70;92.90;;;;;;5096793;28;19924;-44
2023/06/07 07:12:45;;;;;;;;;;;21.70;92.90;;;;;;5096571;28;19908;-44
2023/06/07 07:15:10;;;;;;;;;;;21.70;92.90;;;;;;5095181;28;19918;-48
2023/06/07 07:17:46;;;;;;;;;;;21.70;92.90;;;;;;5103775;28;19917;-45
2023/06/07 07:20:12;;;;;;;;;;;21.70;92.80;;;;;;5093663;28;19920;-43
2023/06/07 07:22:38;;;;;;;;;;;21.70;92.90;;;;;;5102974;28;20263;-46
2023/06/07 07:25:03;;;;;;;;;;;21.70;92.90;;;;;;5108462;28;19923;-46
2023/06/07 07:27:29;;;;;;;;;;;21.70;92.90;;;;;;5095112;28;19913;-42
2023/06/07 07:29:55;;;;;;;;;;;21.70;92.90;;;;;;5098889;28;19923;-44
2023/06/07 07:32:20;;;;;;;;;;;21.70;93.00;;;;;;5111728;28;20011;-45
2023/06/07 07:34:46;;;;;;;;;;;21.70;93.00;;;;;;5093012;28;19912;-42
2023/06/07 07:37:12;;;;;;;;;;;21.70;93.00;;;;;;5106886;28;19919;-45
2023/06/07 07:39:38;;;;;;;;;;;21.70;93.00;;;;;;5096076;28;19908;-46
2023/06/07 07:42:05;;;;;;;;;;;21.70;93.10;;;;;;5080399;28;19964;-44
2023/06/07 07:44:30;;;;;;;;;;;21.70;93.10;;;;;;5104809;28;19918;-43
2023/06/07 07:46:56;;;;;;;;;;;21.80;93.10;;;;;;5094472;28;20366;-45
2023/06/07 07:49:21;;;;;;;;;;;21.80;93.10;;;;;;5093601;28;19916;-49
2023/06/07 07:51:47;;;;;;;;;;;21.80;93.10;;;;;;5108735;28;19969;-44
2023/06/07 07:54:12;;;;;;;;;;;21.80;93.10;;;;;;5077539;28;19908;-44
2023/06/07 07:56:38;;;;;;;;;;;21.80;93.10;;;;;;5093841;28;19929;-42
2023/06/07 07:59:03;;;;;;;;;;;21.80;93.20;;;;;;5098079;28;19911;-44
2023/06/07 08:01:29;;;;;;;;;;;21.80;93.20;;;;;;5101511;28;19912;-46
2023/06/07 08:03:55;;;;;;;;;;;21.80;93.20;;;;;;5105489;28;19911;-44
2023/06/07 08:06:21;;;;;;;;;;;21.80;93.20;;;;;;5097382;28;19923;-45
2023/06/07 08:08:46;;;;;;;;;;;21.80;93.20;;;;;;5093071;28;19916;-46
2023/06/07 08:11:12;;;;;;;;;;;21.80;93.20;;;;;;5095564;28;20424;-43
2023/06/07 08:13:37;;;;;;;;;;;21.80;93.30;;;;;;5094217;28;19908;-44
2023/06/07 08:16:03;;;;;;;;;;;21.80;93.30;;;;;;5094106;28;19912;-43
2023/06/07 08:18:28;;;;;;;;;;;21.80;93.30;;;;;;5093065;28;20114;-44
2023/06/07 08:20:54;;;;;;;;;;;21.80;93.30;;;;;;5093544;28;20252;-44
2023/06/07 08:23:19;;;;;;;;;;;21.80;93.30;;;;;;5099518;28;19956;-43
2023/06/07 08:25:45;;;;;;;;;;;21.80;93.30;;;;;;5110194;28;19919;-47
2023/06/07 08:28:10;;;;;;;;;;;21.80;93.30;;;;;;5102151;28;19918;-43
2023/06/07 08:30:36;;;;;;;;;;;21.80;93.30;;;;;;5093355;28;19916;-42
2023/06/07 08:33:01;;;;;;;;;;;21.90;93.40;;;;;;5115697;28;20262;-45
2023/06/07 08:35:27;;;;;;;;;;;21.80;93.30;;;;;;5108345;28;19940;-49
2023/06/07 08:37:52;;;;;;;;;;;21.90;93.40;;;;;;5102868;28;20374;-52
2023/06/07 08:40:18;;;;;;;;;;;21.90;93.30;;;;;;5094348;28;19920;-45
2023/06/07 08:42:44;;;;;;;;;;;21.90;93.30;;;;;;5111919;28;19914;-43
2023/06/07 08:45:10;;;;;;;;;;;21.90;93.40;;;;;;5081066;28;19912;-43
2023/06/07 08:47:35;;;;;;;;;;;21.90;93.40;;;;;;5107481;28;20306;-46
2023/06/07 08:50:01;;;;;;;;;;;21.90;93.40;;;;;;5084361;28;19923;-44
2023/06/07 08:52:27;;;;;;;;;;;21.90;93.40;;;;;;5110003;28;20028;-43
2023/06/07 08:54:55;;;;;;;;;;;21.90;93.40;;;;;;5094066;28;19921;-46
2023/06/07 08:57:20;;;;;;;;;;;21.90;93.40;;;;;;5103825;28;19912;-44
2023/06/07 08:59:46;;;;;;;;;;;21.90;93.40;;;;;;5099947;28;19956;-45
2023/06/07 09:02:12;;;;;;;;;;;21.90;93.40;;;;;;5114980;28;19908;-44
2023/06/07 09:04:41;;;;;;;;;;;21.90;93.40;;;;;;5114653;28;19908;-44
2023/06/07 09:07:07;;;;;;;;;;;21.90;93.40;;;;;;5105849;28;20255;-43
2023/06/07 09:09:34;;;;;;;;;;;21.90;93.40;;;;;;5106201;28;19916;-44
2023/06/07 09:12:00;;;;;;;;;;;21.90;93.40;;;;;;5096275;28;19915;-42
2023/06/07 09:14:28;;;;;;;;;;;21.90;93.40;;;;;;5114561;28;19908;-44
2023/06/07 09:16:54;;;;;;;;;;;21.90;93.40;;;;;;5109282;28;20006;-45
2023/06/07 09:19:32;;;;;;;;;;;21.90;93.40;;;;;;5103750;28;20006;-46
2023/06/07 09:21:58;;;;;;;;;;;21.90;93.40;;;;;;5114270;28;19908;-43
2023/06/07 09:24:28;;;;;;;;;;;21.90;93.40;;;;;;5097012;28;19918;-45
2023/06/07 09:26:54;;;;;;;;;;;21.90;93.40;;;;;;5114642;28;20384;-45
2023/06/07 09:29:20;;;;;;;;;;;21.90;93.40;;;;;;5105325;28;19915;-46
2023/06/07 09:31:45;;;;;;;;;;;21.90;93.40;;;;;;5106141;28;19916;-45
2023/06/07 09:34:26;;;;;;;;;;;21.90;93.40;;;;;;5101881;28;19964;-47
2023/06/07 09:36:53;;;;;;;;;;;21.90;93.40;;;;;;5106927;28;19926;-44
2023/06/07 09:39:22;;;;;;;;;;;21.90;93.40;;;;;;5114420;28;20006;-45
2023/06/07 09:41:48;;;;;;;;;;;22.00;93.40;;;;;;5089957;28;19961;-46
2023/06/07 09:44:40;;;;;;;;;;;22.00;93.40;;;;;;5117682;28;19912;-45
2023/06/07 09:47:06;;;;;;;;;;;21.90;93.40;;;;;;5104127;28;20367;-45
2023/06/07 09:49:35;;;;;;;;;;;22.00;93.40;;;;;;5098069;28;19917;-47
2023/06/07 09:52:01;;;;;;;;;;;21.90;93.40;;;;;;5084212;28;20374;-48
2023/06/07 09:54:36;;;;;;;;;;;22.00;93.40;;;;;;5118449;28;19965;-45
2023/06/07 09:57:06;;;;;;;;;;;22.00;93.40;;;;;;5097971;28;20267;-44
2023/06/07 09:59:32;;;;;;;;;;;22.00;93.40;;;;;;5097058;28;19926;-44
2023/06/07 10:01:57;;;;;;;;;;;21.90;93.40;;;;;;5109631;28;19908;-46
2023/06/07 10:04:23;;;;;;;;;;;22.00;93.40;;;;;;5113469;28;19972;-44
2023/06/07 10:06:50;;;;;;;;;;;22.00;93.40;;;;;;5108252;28;19961;-45
2023/06/07 10:09:17;;;;;;;;;;;21.90;93.40;;;;;;5113588;28;19923;-45
2023/06/07 10:11:44;;;;;;;;;;;22.00;93.40;;;;;;5116592;28;19912;-48
2023/06/07 10:14:11;;;;;;;;;;;22.00;93.40;;;;;;5111515;28;19912;-48
2023/06/07 10:16:41;;;;;;;;;;;22.00;93.40;;;;;;5096222;28;19997;-45
2023/06/07 10:19:13;;;;;;;;;;;21.90;93.40;;;;;;5084890;28;19912;-45
2023/06/07 10:21:40;;;;;;;;;;;21.90;93.40;;;;;;5092256;28;20442;-43
2023/06/07 10:24:08;;;;;;;;;;;22.00;93.40;;;;;;5110647;28;19912;-43
2023/06/07 10:26:37;;;;;;;;;;;22.00;93.40;;;;;;5097117;28;20003;-44
2023/06/07 10:29:06;;;;;;;;;;;22.00;93.40;;;;;;5095080;28;19912;-45
2023/06/07 10:31:34;;;;;;;;;;;21.90;93.40;;;;;;5097399;28;19955;-44
2023/06/07 10:34:07;;;;;;;;;;;21.90;93.40;;;;;;5092276;28;19919;-43
2023/06/07 10:36:33;;;;;;;;;;;22.00;93.40;;;;;;5098300;28;20387;-43
2023/06/07 10:38:58;;;;;;;;;;;22.00;93.40;;;;;;5081673;28;19994;-43
2023/06/07 10:41:26;;;;;;;;;;;22.00;93.30;;;;;;5114687;28;19950;-43
2023/06/07 10:43:52;;;;;;;;;;;22.00;93.30;;;;;;5098924;28;19916;-44
2023/06/07 10:46:23;;;;;;;;;;;22.00;93.30;;;;;;5092930;28;20279;-43
2023/06/07 10:48:49;;;;;;;;;;;22.00;93.30;;;;;;5094444;28;19967;-44
2023/06/07 10:51:15;;;;;;;;;;;22.00;93.30;;;;;;5095088;28;19912;-45
2023/06/07 10:54:07;;;;;;;;;;;22.00;93.30;;;;;;5077736;28;20290;-44
2023/06/07 10:56:33;;;;;;;;;;;22.00;93.30;;;;;;5092098;28;19908;-50
2023/06/07 10:59:14;;;;;;;;;;;22.00;93.30;;;;;;5100524;28;19916;-43
2023/06/07 11:01:39;;;;;;;;;;;22.00;93.30;;;;;;5104740;28;20006;-50
2023/06/07 11:04:05;;;;;;;;;;;22.00;93.30;;;;;;5102964;28;19951;-46
2023/06/07 11:06:32;;;;;;;;;;;22.00;93.30;;;;;;5094174;28;19924;-45
2023/06/07 11:09:33;;;;;;;;;;;22.00;93.40;;;;;;5096233;28;20298;-43
2023/06/07 11:11:59;;;;;;;;;;;22.00;93.40;;;;;;5084264;28;20332;-44
2023/06/07 11:14:24;;;;;;;;;;;22.00;93.30;;;;;;5096480;28;19953;-49
2023/06/07 11:16:49;;;;;;;;;;;22.00;93.30;;;;;;5077240;28;19908;-40
2023/06/07 11:19:17;;;;;;;;;;;22.00;93.30;;;;;;5096005;28;19913;-45
2023/06/07 11:21:55;;;;;;;;;;;22.00;93.30;;;;;;5094958;28;19913;-42
2023/06/07 11:24:20;;;;;;;;;;;22.10;93.40;;;;;;5098511;28;19912;-43
2023/06/07 11:26:47;;;;;;;;;;;22.10;93.40;;;;;;5094881;28;19920;-43
2023/06/07 11:29:16;;;;;;;;;;;22.10;93.40;;;;;;5093733;28;20357;-49
2023/06/07 11:31:42;;;;;;;;;;;22.10;93.40;;;;;;5098855;28;20366;-44
2023/06/07 11:34:12;;;;;;;;;;;22.00;93.30;;;;;;5103015;28;19919;-43
2023/06/07 11:36:37;;;;;;;;;;;22.10;93.40;;;;;;5110515;28;19937;-46
2023/06/07 11:39:07;;;;;;;;;;;22.10;93.40;;;;;;5096775;28;19921;-44
2023/06/07 11:41:32;;;;;;;;;;;22.10;93.40;;;;;;5095916;28;20282;-43
2023/06/07 11:44:01;;;;;;;;;;;22.10;93.40;;;;;;5095747;28;19934;-45
2023/06/07 11:46:33;;;;;;;;;;;22.10;93.40;;;;;;5108504;28;19966;-48
2023/06/07 11:49:12;;;;;;;;;;;22.10;93.40;;;;;;5094403;28;19982;-43
2023/06/07 11:51:38;;;;;;;;;;;22.10;93.40;;;;;;5095620;28;20389;-43
2023/06/07 11:54:04;;;;;;;;;;;22.10;93.40;;;;;;5095531;28;19914;-44
2023/06/07 11:56:30;;;;;;;;;;;22.10;93.40;;;;;;5099621;28;19999;-47
2023/06/07 11:58:59;;;;;;;;;;;22.10;93.40;;;;;;5101350;28;19964;-44
2023/06/07 12:01:25;;;;;;;;;;;22.10;93.40;;;;;;5092593;28;19916;-42
2023/06/07 12:03:50;;;;;;;;;;;22.10;93.40;;;;;;5101679;28;19957;-44
2023/06/07 12:06:16;;;;;;;;;;;22.10;93.40;;;;;;5106696;28;19943;-45
2023/06/07 12:08:41;;;;;;;;;;;22.10;93.40;;;;;;5110814;28;19955;-45
2023/06/07 12:11:06;;;;;;;;;;;22.10;93.40;;;;;;5114874;28;19923;-45
2023/06/07 12:13:39;;;;;;;;;;;22.10;93.40;;;;;;5115560;28;19907;-45
2023/06/07 12:16:05;;;;;;;;;;;22.10;93.40;;;;;;5110896;28;19940;-48
2023/06/07 12:18:32;;;;;;;;;;;22.10;93.40;;;;;;5094922;28;19991;-43
2023/06/07 12:21:01;;;;;;;;;;;22.10;93.40;;;;;;5095169;28;20252;-43
2023/06/07 12:23:26;;;;;;;;;;;22.10;93.40;;;;;;5110210;28;19908;-42
2023/06/07 12:26:04;;;;;;;;;;;22.10;93.40;;;;;;5099658;28;19918;-43
2023/06/07 12:28:30;;;;;;;;;;;22.10;93.50;;;;;;5102616;28;20393;-43
2023/06/07 12:30:55;;;;;;;;;;;22.10;93.50;;;;;;5105086;28;19924;-45
2023/06/07 12:33:24;;;;;;;;;;;22.10;93.50;;;;;;5115512;28;19912;-43
2023/06/07 12:35:50;;;;;;;;;;;22.10;93.50;;;;;;5115289;28;19911;-43
2023/06/07 12:38:18;;;;;;;;;;;22.10;93.50;;;;;;5096167;28;20003;-44
2023/06/07 12:40:45;;;;;;;;;;;22.10;93.50;;;;;;5094253;28;19915;-46
2023/06/07 12:43:11;;;;;;;;;;;22.10;93.40;;;;;;5094923;28;19904;-43
2023/06/07 12:45:37;;;;;;;;;;;22.10;93.40;;;;;;5093849;28;20223;-43
2023/06/07 12:48:02;;;;;;;;;;;22.10;93.40;;;;;;5093566;28;19926;-43
2023/06/07 12:50:30;;;;;;;;;;;22.00;93.40;;;;;;5093172;28;21224;-45
2023/06/07 12:52:55;;;;;;;;;;;22.10;93.40;;;;;;5094461;28;19943;-43
2023/06/07 12:55:21;;;;;;;;;;;22.10;93.40;;;;;;5075877;28;19911;-46
2023/06/07 12:57:46;;;;;;;;;;;22.00;93.40;;;;;;5095620;28;20378;-43
2023/06/07 13:00:12;;;;;;;;;;;22.00;93.40;;;;;;5107760;28;20277;-43
2023/06/07 13:02:38;;;;;;;;;;;22.10;93.40;;;;;;5074969;28;19912;-44
2023/06/07 13:05:04;;;;;;;;;;;22.00;93.40;;;;;;5094087;28;19922;-45
2023/06/07 13:07:29;;;;;;;;;;;22.00;93.30;;;;;;5093394;28;19923;-44
2023/06/07 13:09:55;;;;;;;;;;;22.00;93.30;;;;;;5093385;28;20014;-46
2023/06/07 13:12:21;;;;;;;;;;;22.00;93.30;;;;;;5072839;28;20363;-46
2023/06/07 13:14:46;;;;;;;;;;;22.00;93.20;;;;;;5107308;28;20350;-43
2023/06/07 13:17:12;;;;;;;;;;;22.10;93.30;;;;;;5092990;28;20328;-42
2023/06/07 13:19:38;;;;;;;;;;;22.00;93.20;;;;;;5091859;28;19915;-42
2023/06/07 13:22:04;;;;;;;;;;;22.00;93.50;;;;;;5095084;28;19908;-41
2023/06/07 13:24:29;;;;;;;;;;;22.10;93.30;;;;;;5092911;28;19957;-44
2023/06/07 13:26:55;;;;;;;;;;;22.10;93.30;;;;;;5092759;28;19992;-43
2023/06/07 13:29:21;;;;;;;;;;;22.10;93.30;;;;;;5094200;28;19908;-42
2023/06/07 13:31:46;;;;;;;;;;;22.10;93.30;;;;;;5092497;28;20716;-48
2023/06/07 13:34:12;;;;;;;;;;;22.10;93.30;;;;;;5095586;28;19915;-44
2023/06/07 13:36:37;;;;;;;;;;;22.10;93.30;;;;;;5092661;28;19970;-49
2023/06/07 13:39:03;;;;;;;;;;;22.10;93.30;;;;;;5093087;28;20281;-45
2023/06/07 13:41:28;;;;;;;;;;;22.10;93.30;;;;;;5097993;28;20041;-42
2023/06/07 13:43:54;;;;;;;;;;;22.10;93.30;;;;;;5093015;28;19954;-46
2023/06/07 13:46:19;;;;;;;;;;;22.10;93.30;;;;;;5093581;28;19916;-43
2023/06/07 13:48:45;;;;;;;;;;;22.10;93.30;;;;;;5095399;28;19912;-44
2023/06/07 13:51:11;;;;;;;;;;;22.10;93.30;;;;;;5096210;28;19943;-44
2023/06/07 13:53:41;;;;;;;;;;;22.10;93.30;;;;;;5091074;28;19960;-42
2023/06/07 13:56:07;;;;;;;;;;;22.10;93.30;;;;;;5092989;28;19935;-46
2023/06/07 13:58:33;;;;;;;;;;;22.10;93.30;;;;;;5093610;28;19920;-45
2023/06/07 14:01:00;;;;;;;;;;;22.10;93.30;;;;;;5097286;28;20012;-46
2023/06/07 14:03:26;;;;;;;;;;;22.10;93.30;;;;;;5091277;28;19931;-41
2023/06/07 14:05:51;;;;;;;;;;;22.10;93.40;;;;;;5092309;28;19912;-40
2023/06/07 14:08:17;;;;;;;;;;;22.10;93.40;;;;;;5092410;28;19909;-45
2023/06/07 14:10:42;;;;;;;;;;;22.10;93.40;;;;;;5091913;28;19912;-42
2023/06/07 14:13:08;;;;;;;;;;;22.10;93.40;;;;;;5090532;28;19995;-42